sensor_id;sensor_type;location;lat;lon;timestamp;temperature;humidity
5176;DHT22;2607;50.934;6.934;2023-07-29T00:00:42;19.30;99.90
5176;DHT22;2607;50.934;6.934;2023-07-29T00:03:08;19.30;99.90
5176;DHT22;2607;50.934;6.934;2023-07-29T00:05:34;19.30;99.90
5176;DHT22;2607;50.934;6.934;2023-07-29T00:08:00;19.30;99.90
5176;DHT22;2607;50.934;6.934;2023-07-29T00:10:26;19.30;99.90
5176;DHT22;2607;50.934;6.934;2023-07-29T00:12:51;19.30;99.90
5176;DHT22;2607;50.934;6.934;2023-07-29T00:15:17;19.20;99.90
5176;DHT22;2607;50.934;6.934;2023-07-29T00:17:42;19.20;99.90
5176;DHT22;2607;50.934;6.934;2023-07-29T00:20:08;19.20;99.90
5176;DHT22;2607;50.934;6.934;2023-07-29T00:22:33;19.20;99.90
5176;DHT22;2607;50.934;6.934;2023-07-29T00:24:59;19.20;99.90
5176;DHT22;2607;50.934;6.934;2023-07-29T00:27:25;19.20;99.90
5176;DHT22;2607;50.934;6.934;2023-07-29T00:29:51;19.20;99.90
5176;DHT22;2607;50.934;6.934;2023-07-29T00:32:17;19.20;99.90
5176;DHT22;2607;50.934;6.934;2023-07-29T00:34:43;19.20;99.90
5176;DHT22;2607;50.934;6.934;2023-07-29T00:37:08;19.20;99.90
5176;DHT22;2607;50.934;6.934;2023-07-29T00:39:34;19.10;99.90
5176;DHT22;2607;50.934;6.934;2023-07-29T00:42:01;19.10;99.90
5176;DHT22;2607;50.934;6.934;2023-07-29T00:44:27;19.10;99.90
5176;DHT22;2607;50.934;6.934;2023-07-29T00:46:53;19.10;99.90
5176;DHT22;2607;50.934;6.934;2023-07-29T00:49:19;19.10;99.90
5176;DHT22;2607;50.934;6.934;2023-07-29T00:51:45;19.10;99.90
5176;DHT22;2607;50.934;6.934;2023-07-29T00:54:11;19.00;99.90
5176;DHT22;2607;50.934;6.934;2023-07-29T00:56:37;19.00;99.90
5176;DHT22;2607;50.934;6.934;2023-07-29T00:59:03;19.00;99.90
5176;DHT22;2607;50.934;6.934;2023-07-29T01:01:30;19.00;99.90
5176;DHT22;2607;50.934;6.934;2023-07-29T01:03:55;19.00;99.90
5176;DHT22;2607;50.934;6.934;2023-07-29T01:06:23;19.00;99.90
5176;DHT22;2607;50.934;6.934;2023-07-29T01:09:02;19.00;99.90
5176;DHT22;2607;50.934;6.934;2023-07-29T01:14:51;19.00;99.90
5176;DHT22;2607;50.934;6.934;2023-07-29T01:17:23;19.00;99.90
5176;DHT22;2607;50.934;6.934;2023-07-29T01:20:09;19.00;99.90
5176;DHT22;2607;50.934;6.934;2023-07-29T01:22:37;19.00;99.90
5176;DHT22;2607;50.934;6.934;2023-07-29T01:25:06;19.00;99.90
5176;DHT22;2607;50.934;6.934;2023-07-29T01:27:32;19.00;99.90
5176;DHT22;2607;50.934;6.934;2023-07-29T01:29:58;19.00;99.90
5176;DHT22;2607;50.934;6.934;2023-07-29T01:33:05;19.00;99.90
5176;DHT22;2607;50.934;6.934;2023-07-29T01:35:36;19.00;99.90
5176;DHT22;2607;50.934;6.934;2023-07-29T01:38:24;19.00;99.90
5176;DHT22;2607;50.934;6.934;2023-07-29T01:40:54;19.00;99.90
5176;DHT22;2607;50.934;6.934;2023-07-29T01:43:20;19.00;99.90
5176;DHT22;2607;50.934;6.934;2023-07-29T01:45:49;19.00;99.90
5176;DHT22;2607;50.934;6.934;2023-07-29T01:48:14;19.00;99.90
5176;DHT22;2607;50.934;6.934;2023-07-29T01:50:40;19.00;99.90
5176;DHT22;2607;50.934;6.934;2023-07-29T01:53:05;19.00;99.90
5176;DHT22;2607;50.934;6.934;2023-07-29T01:55:31;19.10;99.90
5176;DHT22;2607;50.934;6.934;2023-07-29T01:57:57;19.00;99.90
5176;DHT22;2607;50.934;6.934;2023-07-29T02:00:23;19.00;99.90
5176;DHT22;2607;50.934;6.934;2023-07-29T02:02:49;19.00;99.90
5176;DHT22;2607;50.934;6.934;2023-07-29T02:05:14;19.00;99.90
5176;DHT22;2607;50.934;6.934;2023-07-29T02:07:40;19.00;99.90
5176;DHT22;2607;50.934;6.934;2023-07-29T02:10:06;19.00;99.90
5176;DHT22;2607;50.934;6.934;2023-07-29T02:12:31;19.00;99.90
5176;DHT22;2607;50.934;6.934;2023-07-29T02:14:57;19.00;99.90
5176;DHT22;2607;50.934;6.934;2023-07-29T02:17:23;19.00;99.90
5176;DHT22;2607;50.934;6.934;2023-07-29T02:19:48;19.00;99.90
5176;DHT22;2607;50.934;6.934;2023-07-29T02:22:15;19.00;99.90
5176;DHT22;2607;50.934;6.934;2023-07-29T02:24:41;19.00;99.90
5176;DHT22;2607;50.934;6.934;2023-07-29T02:27:06;19.00;99.90
5176;DHT22;2607;50.934;6.934;2023-07-29T02:29:32;19.00;99.90
5176;DHT22;2607;50.934;6.934;2023-07-29T02:31:59;19.00;99.90
5176;DHT22;2607;50.934;6.934;2023-07-29T02:34:24;18.90;99.90
5176;DHT22;2607;50.934;6.934;2023-07-29T02:36:50;18.90;99.90
5176;DHT22;2607;50.934;6.934;2023-07-29T02:39:15;18.90;99.90
5176;DHT22;2607;50.934;6.934;2023-07-29T02:41:41;18.90;99.90
5176;DHT22;2607;50.934;6.934;2023-07-29T02:44:07;18.90;99.90
5176;DHT22;2607;50.934;6.934;2023-07-29T02:46:32;18.90;99.90
5176;DHT22;2607;50.934;6.934;2023-07-29T02:48:58;18.90;99.90
5176;DHT22;2607;50.934;6.934;2023-07-29T02:51:23;18.90;99.90
5176;DHT22;2607;50.934;6.934;2023-07-29T02:53:49;18.90;99.90
5176;DHT22;2607;50.934;6.934;2023-07-29T02:56:14;18.80;99.90
5176;DHT22;2607;50.934;6.934;2023-07-29T02:58:40;18.80;99.90
5176;DHT22;2607;50.934;6.934;2023-07-29T03:01:06;18.80;99.90
5176;DHT22;2607;50.934;6.934;2023-07-29T03:03:33;18.80;99.90
5176;DHT22;2607;50.934;6.934;2023-07-29T03:06:03;18.80;99.90
5176;DHT22;2607;50.934;6.934;2023-07-29T03:08:29;18.80;99.90
5176;DHT22;2607;50.934;6.934;2023-07-29T03:10:55;18.80;99.90
5176;DHT22;2607;50.934;6.934;2023-07-29T03:13:21;18.80;99.90
5176;DHT22;2607;50.934;6.934;2023-07-29T03:15:46;18.80;99.90
5176;DHT22;2607;50.934;6.934;2023-07-29T03:18:12;18.80;99.90
5176;DHT22;2607;50.934;6.934;2023-07-29T03:20:38;18.70;99.90
5176;DHT22;2607;50.934;6.934;2023-07-29T03:23:03;18.70;99.90
5176;DHT22;2607;50.934;6.934;2023-07-29T03:25:29;18.70;99.90
5176;DHT22;2607;50.934;6.934;2023-07-29T03:27:54;18.70;99.90
5176;DHT22;2607;50.934;6.934;2023-07-29T03:30:21;18.70;99.90
5176;DHT22;2607;50.934;6.934;2023-07-29T03:32:48;18.70;99.90
5176;DHT22;2607;50.934;6.934;2023-07-29T03:35:13;18.60;99.90
5176;DHT22;2607;50.934;6.934;2023-07-29T03:37:39;18.60;99.90
5176;DHT22;2607;50.934;6.934;2023-07-29T03:40:06;18.60;99.90
5176;DHT22;2607;50.934;6.934;2023-07-29T03:42:32;18.60;99.90
5176;DHT22;2607;50.934;6.934;2023-07-29T03:44:57;18.60;99.90
5176;DHT22;2607;50.934;6.934;2023-07-29T03:47:23;18.60;99.90
5176;DHT22;2607;50.934;6.934;2023-07-29T03:49:49;18.60;99.90
5176;DHT22;2607;50.934;6.934;2023-07-29T03:52:15;18.60;99.90
5176;DHT22;2607;50.934;6.934;2023-07-29T03:54:41;18.50;99.90
5176;DHT22;2607;50.934;6.934;2023-07-29T03:57:06;18.50;99.90
5176;DHT22;2607;50.934;6.934;2023-07-29T03:59:32;18.50;99.90
5176;DHT22;2607;50.934;6.934;2023-07-29T04:01:57;18.50;99.90
5176;DHT22;2607;50.934;6.934;2023-07-29T04:04:23;18.50;99.90
5176;DHT22;2607;50.934;6.934;2023-07-29T04:06:49;18.50;99.90
5176;DHT22;2607;50.934;6.934;2023-07-29T04:09:14;18.50;99.90
5176;DHT22;2607;50.934;6.934;2023-07-29T04:11:40;18.50;99.90
5176;DHT22;2607;50.934;6.934;2023-07-29T04:14:05;18.50;99.90
5176;DHT22;2607;50.934;6.934;2023-07-29T04:16:31;18.50;99.90
5176;DHT22;2607;50.934;6.934;2023-07-29T04:18:56;18.40;99.90
5176;DHT22;2607;50.934;6.934;2023-07-29T04:21:22;18.40;99.90
5176;DHT22;2607;50.934;6.934;2023-07-29T04:23:47;18.40;99.90
5176;DHT22;2607;50.934;6.934;2023-07-29T04:26:13;18.40;99.90
5176;DHT22;2607;50.934;6.934;2023-07-29T04:28:38;18.40;99.90
5176;DHT22;2607;50.934;6.934;2023-07-29T04:31:04;18.40;99.90
5176;DHT22;2607;50.934;6.934;2023-07-29T04:33:30;18.40;99.90
5176;DHT22;2607;50.934;6.934;2023-07-29T04:35:56;18.40;99.90
5176;DHT22;2607;50.934;6.934;2023-07-29T04:38:22;18.40;99.90
5176;DHT22;2607;50.934;6.934;2023-07-29T04:40:49;18.40;99.90
5176;DHT22;2607;50.934;6.934;2023-07-29T04:43:15;18.40;99.90
5176;DHT22;2607;50.934;6.934;2023-07-29T04:45:43;18.40;99.90
5176;DHT22;2607;50.934;6.934;2023-07-29T04:48:09;18.40;99.90
5176;DHT22;2607;50.934;6.934;2023-07-29T04:50:34;18.40;99.90
5176;DHT22;2607;50.934;6.934;2023-07-29T04:53:00;18.40;99.90
5176;DHT22;2607;50.934;6.934;2023-07-29T04:55:25;18.40;99.90
5176;DHT22;2607;50.934;6.934;2023-07-29T04:57:51;18.40;99.90
5176;DHT22;2607;50.934;6.934;2023-07-29T05:00:17;18.40;99.90
5176;DHT22;2607;50.934;6.934;2023-07-29T05:02:43;18.40;99.90
5176;DHT22;2607;50.934;6.934;2023-07-29T05:05:09;18.40;99.90
5176;DHT22;2607;50.934;6.934;2023-07-29T05:07:34;18.40;99.90
5176;DHT22;2607;50.934;6.934;2023-07-29T05:10:00;18.40;99.90
5176;DHT22;2607;50.934;6.934;2023-07-29T05:12:25;18.40;99.90
5176;DHT22;2607;50.934;6.934;2023-07-29T05:14:51;18.50;99.90
5176;DHT22;2607;50.934;6.934;2023-07-29T05:17:16;18.50;99.90
5176;DHT22;2607;50.934;6.934;2023-07-29T05:19:42;18.50;99.90
5176;DHT22;2607;50.934;6.934;2023-07-29T05:22:07;18.50;99.90
5176;DHT22;2607;50.934;6.934;2023-07-29T05:24:33;18.50;99.90
5176;DHT22;2607;50.934;6.934;2023-07-29T05:26:58;18.50;99.90
5176;DHT22;2607;50.934;6.934;2023-07-29T05:29:24;18.50;99.90
5176;DHT22;2607;50.934;6.934;2023-07-29T05:31:50;18.50;99.90
5176;DHT22;2607;50.934;6.934;2023-07-29T05:34:15;18.50;99.90
5176;DHT22;2607;50.934;6.934;2023-07-29T05:36:41;18.60;99.90
5176;DHT22;2607;50.934;6.934;2023-07-29T05:39:06;18.60;99.90
5176;DHT22;2607;50.934;6.934;2023-07-29T05:41:32;18.60;99.90
5176;DHT22;2607;50.934;6.934;2023-07-29T05:43:58;18.60;99.90
5176;DHT22;2607;50.934;6.934;2023-07-29T05:46:24;18.60;99.90
5176;DHT22;2607;50.934;6.934;2023-07-29T05:48:49;18.60;99.90
5176;DHT22;2607;50.934;6.934;2023-07-29T05:51:15;18.60;99.90
5176;DHT22;2607;50.934;6.934;2023-07-29T05:53:40;18.60;99.90
5176;DHT22;2607;50.934;6.934;2023-07-29T05:56:06;18.60;99.90
5176;DHT22;2607;50.934;6.934;2023-07-29T05:58:31;18.60;99.90
5176;DHT22;2607;50.934;6.934;2023-07-29T06:00:57;18.60;99.90
5176;DHT22;2607;50.934;6.934;2023-07-29T06:03:23;18.60;99.90
5176;DHT22;2607;50.934;6.934;2023-07-29T06:05:49;18.70;99.90
5176;DHT22;2607;50.934;6.934;2023-07-29T06:08:15;18.70;99.90
5176;DHT22;2607;50.934;6.934;2023-07-29T06:10:40;18.70;99.90
5176;DHT22;2607;50.934;6.934;2023-07-29T06:13:06;18.70;99.90
5176;DHT22;2607;50.934;6.934;2023-07-29T06:15:31;18.70;99.90
5176;DHT22;2607;50.934;6.934;2023-07-29T06:17:57;18.70;99.90
5176;DHT22;2607;50.934;6.934;2023-07-29T06:20:23;18.70;99.90
5176;DHT22;2607;50.934;6.934;2023-07-29T06:22:48;18.70;99.90
5176;DHT22;2607;50.934;6.934;2023-07-29T06:25:14;18.70;99.90
5176;DHT22;2607;50.934;6.934;2023-07-29T06:27:39;18.70;99.90
5176;DHT22;2607;50.934;6.934;2023-07-29T06:30:05;18.70;99.90
5176;DHT22;2607;50.934;6.934;2023-07-29T06:32:31;18.70;99.90
5176;DHT22;2607;50.934;6.934;2023-07-29T06:34:57;18.70;99.90
5176;DHT22;2607;50.934;6.934;2023-07-29T06:37:22;18.60;99.90
5176;DHT22;2607;50.934;6.934;2023-07-29T06:39:48;18.60;99.90
5176;DHT22;2607;50.934;6.934;2023-07-29T06:42:13;18.60;99.90
5176;DHT22;2607;50.934;6.934;2023-07-29T06:44:40;18.60;99.90
5176;DHT22;2607;50.934;6.934;2023-07-29T06:47:05;18.50;99.90
5176;DHT22;2607;50.934;6.934;2023-07-29T06:49:31;18.50;99.90
5176;DHT22;2607;50.934;6.934;2023-07-29T06:51:57;18.50;99.90
5176;DHT22;2607;50.934;6.934;2023-07-29T06:54:25;18.50;99.90
5176;DHT22;2607;50.934;6.934;2023-07-29T06:56:54;18.50;99.90
5176;DHT22;2607;50.934;6.934;2023-07-29T06:59:19;18.50;99.90
5176;DHT22;2607;50.934;6.934;2023-07-29T07:01:45;18.50;99.90
5176;DHT22;2607;50.934;6.934;2023-07-29T07:04:11;18.50;99.90
5176;DHT22;2607;50.934;6.934;2023-07-29T07:06:36;18.50;99.90
5176;DHT22;2607;50.934;6.934;2023-07-29T07:09:02;18.60;99.90
5176;DHT22;2607;50.934;6.934;2023-07-29T07:11:28;18.70;99.90
5176;DHT22;2607;50.934;6.934;2023-07-29T07:13:53;18.70;99.90
5176;DHT22;2607;50.934;6.934;2023-07-29T07:16:19;18.70;99.90
5176;DHT22;2607;50.934;6.934;2023-07-29T07:18:44;18.70;99.90
5176;DHT22;2607;50.934;6.934;2023-07-29T07:21:10;18.70;99.90
5176;DHT22;2607;50.934;6.934;2023-07-29T07:23:36;18.80;99.90
5176;DHT22;2607;50.934;6.934;2023-07-29T07:26:01;18.80;99.90
5176;DHT22;2607;50.934;6.934;2023-07-29T07:28:27;18.90;99.90
5176;DHT22;2607;50.934;6.934;2023-07-29T07:30:52;18.80;99.90
5176;DHT22;2607;50.934;6.934;2023-07-29T07:33:18;18.80;99.90
5176;DHT22;2607;50.934;6.934;2023-07-29T07:35:43;18.80;99.90
5176;DHT22;2607;50.934;6.934;2023-07-29T07:38:09;18.70;99.90
5176;DHT22;2607;50.934;6.934;2023-07-29T07:40:36;18.80;99.90
5176;DHT22;2607;50.934;6.934;2023-07-29T07:43:02;18.80;99.90
5176;DHT22;2607;50.934;6.934;2023-07-29T07:45:27;18.90;99.90
5176;DHT22;2607;50.934;6.934;2023-07-29T07:47:53;18.90;99.90
5176;DHT22;2607;50.934;6.934;2023-07-29T07:50:19;18.90;99.90
5176;DHT22;2607;50.934;6.934;2023-07-29T07:52:44;18.90;99.90
5176;DHT22;2607;50.934;6.934;2023-07-29T07:55:10;18.90;99.90
5176;DHT22;2607;50.934;6.934;2023-07-29T07:57:35;18.90;99.90
5176;DHT22;2607;50.934;6.934;2023-07-29T08:00:01;19.00;99.90
5176;DHT22;2607;50.934;6.934;2023-07-29T08:02:27;18.90;99.90
5176;DHT22;2607;50.934;6.934;2023-07-29T08:04:52;18.90;99.90
5176;DHT22;2607;50.934;6.934;2023-07-29T08:07:18;18.90;99.90
5176;DHT22;2607;50.934;6.934;2023-07-29T08:09:44;19.00;99.90
5176;DHT22;2607;50.934;6.934;2023-07-29T08:12:09;19.00;99.90
5176;DHT22;2607;50.934;6.934;2023-07-29T08:14:35;18.90;99.90
5176;DHT22;2607;50.934;6.934;2023-07-29T08:17:00;18.90;99.90
5176;DHT22;2607;50.934;6.934;2023-07-29T08:19:27;18.90;99.90
5176;DHT22;2607;50.934;6.934;2023-07-29T08:21:52;18.90;99.90
5176;DHT22;2607;50.934;6.934;2023-07-29T08:24:18;18.90;99.90
5176;DHT22;2607;50.934;6.934;2023-07-29T08:26:43;18.90;99.90
5176;DHT22;2607;50.934;6.934;2023-07-29T08:29:09;18.90;99.90
5176;DHT22;2607;50.934;6.934;2023-07-29T08:31:35;18.90;99.90
5176;DHT22;2607;50.934;6.934;2023-07-29T08:34:00;19.00;99.90
5176;DHT22;2607;50.934;6.934;2023-07-29T08:36:26;19.00;99.90
5176;DHT22;2607;50.934;6.934;2023-07-29T08:38:52;19.00;99.90
5176;DHT22;2607;50.934;6.934;2023-07-29T08:41:25;19.10;99.90
5176;DHT22;2607;50.934;6.934;2023-07-29T08:44:12;19.10;99.90
5176;DHT22;2607;50.934;6.934;2023-07-29T08:46:43;19.10;99.90
5176;DHT22;2607;50.934;6.934;2023-07-29T08:49:11;19.10;99.90
5176;DHT22;2607;50.934;6.934;2023-07-29T08:51:41;19.10;99.90
5176;DHT22;2607;50.934;6.934;2023-07-29T08:54:07;19.00;99.90
5176;DHT22;2607;50.934;6.934;2023-07-29T08:56:33;19.00;99.90
5176;DHT22;2607;50.934;6.934;2023-07-29T08:58:59;19.00;99.90
5176;DHT22;2607;50.934;6.934;2023-07-29T09:01:27;19.00;99.90
5176;DHT22;2607;50.934;6.934;2023-07-29T09:03:53;19.00;99.90
5176;DHT22;2607;50.934;6.934;2023-07-29T09:06:19;19.10;99.90
5176;DHT22;2607;50.934;6.934;2023-07-29T09:08:47;19.10;99.90
5176;DHT22;2607;50.934;6.934;2023-07-29T09:11:14;19.10;99.90
5176;DHT22;2607;50.934;6.934;2023-07-29T09:13:42;19.10;99.90
5176;DHT22;2607;50.934;6.934;2023-07-29T09:16:08;19.10;99.90
5176;DHT22;2607;50.934;6.934;2023-07-29T09:18:34;19.00;99.90
5176;DHT22;2607;50.934;6.934;2023-07-29T09:21:00;19.00;99.90
5176;DHT22;2607;50.934;6.934;2023-07-29T09:23:39;19.00;99.90
5176;DHT22;2607;50.934;6.934;2023-07-29T09:26:05;18.90;99.90
5176;DHT22;2607;50.934;6.934;2023-07-29T09:28:38;18.90;99.90
5176;DHT22;2607;50.934;6.934;2023-07-29T09:31:04;18.80;99.90
5176;DHT22;2607;50.934;6.934;2023-07-29T09:33:33;18.80;99.90
5176;DHT22;2607;50.934;6.934;2023-07-29T09:36:01;18.80;99.90
5176;DHT22;2607;50.934;6.934;2023-07-29T09:38:27;18.80;99.90
5176;DHT22;2607;50.934;6.934;2023-07-29T09:40:56;18.80;99.90
5176;DHT22;2607;50.934;6.934;2023-07-29T09:43:26;18.80;99.90
5176;DHT22;2607;50.934;6.934;2023-07-29T09:45:54;18.80;99.90
5176;DHT22;2607;50.934;6.934;2023-07-29T09:48:22;18.80;99.90
5176;DHT22;2607;50.934;6.934;2023-07-29T09:50:48;18.90;99.90
5176;DHT22;2607;50.934;6.934;2023-07-29T09:53:14;18.90;99.90
5176;DHT22;2607;50.934;6.934;2023-07-29T09:55:46;19.00;99.90
5176;DHT22;2607;50.934;6.934;2023-07-29T09:58:14;19.10;99.90
5176;DHT22;2607;50.934;6.934;2023-07-29T10:00:39;19.20;99.90
5176;DHT22;2607;50.934;6.934;2023-07-29T10:03:06;19.30;99.90
5176;DHT22;2607;50.934;6.934;2023-07-29T10:05:32;19.30;99.90
5176;DHT22;2607;50.934;6.934;2023-07-29T10:08:00;19.30;99.90
5176;DHT22;2607;50.934;6.934;2023-07-29T10:10:27;19.40;99.90
5176;DHT22;2607;50.934;6.934;2023-07-29T10:12:54;19.40;99.90
5176;DHT22;2607;50.934;6.934;2023-07-29T10:15:20;19.40;99.90
5176;DHT22;2607;50.934;6.934;2023-07-29T10:17:46;19.50;99.90
5176;DHT22;2607;50.934;6.934;2023-07-29T10:20:13;19.50;99.90
5176;DHT22;2607;50.934;6.934;2023-07-29T10:22:39;19.50;99.90
5176;DHT22;2607;50.934;6.934;2023-07-29T10:25:17;19.50;99.90
5176;DHT22;2607;50.934;6.934;2023-07-29T10:27:47;19.50;99.90
5176;DHT22;2607;50.934;6.934;2023-07-29T10:30:13;19.40;99.90
5176;DHT22;2607;50.934;6.934;2023-07-29T10:32:42;19.40;99.90
5176;DHT22;2607;50.934;6.934;2023-07-29T10:35:08;19.40;99.90
5176;DHT22;2607;50.934;6.934;2023-07-29T10:37:35;19.30;99.90
5176;DHT22;2607;50.934;6.934;2023-07-29T10:40:00;19.30;99.90
5176;DHT22;2607;50.934;6.934;2023-07-29T10:42:30;19.20;99.90
5176;DHT22;2607;50.934;6.934;2023-07-29T10:44:56;19.20;99.90
5176;DHT22;2607;50.934;6.934;2023-07-29T10:47:26;19.20;99.90
5176;DHT22;2607;50.934;6.934;2023-07-29T10:49:56;19.10;99.90
5176;DHT22;2607;50.934;6.934;2023-07-29T10:52:40;19.10;99.90
5176;DHT22;2607;50.934;6.934;2023-07-29T10:55:24;19.00;99.90
5176;DHT22;2607;50.934;6.934;2023-07-29T10:57:51;19.00;99.90
5176;DHT22;2607;50.934;6.934;2023-07-29T11:00:19;19.00;99.90
5176;DHT22;2607;50.934;6.934;2023-07-29T11:03:00;19.00;99.90
5176;DHT22;2607;50.934;6.934;2023-07-29T11:05:26;19.10;99.90
5176;DHT22;2607;50.934;6.934;2023-07-29T11:07:52;19.20;99.90
5176;DHT22;2607;50.934;6.934;2023-07-29T11:10:18;19.20;99.90
5176;DHT22;2607;50.934;6.934;2023-07-29T11:12:51;19.30;99.90
5176;DHT22;2607;50.934;6.934;2023-07-29T11:18:11;19.40;99.90
5176;DHT22;2607;50.934;6.934;2023-07-29T11:20:40;19.40;99.90
5176;DHT22;2607;50.934;6.934;2023-07-29T11:23:06;19.40;99.90
5176;DHT22;2607;50.934;6.934;2023-07-29T11:25:31;19.40;99.90
5176;DHT22;2607;50.934;6.934;2023-07-29T11:27:59;19.50;99.90
5176;DHT22;2607;50.934;6.934;2023-07-29T11:30:25;19.50;99.90
5176;DHT22;2607;50.934;6.934;2023-07-29T11:32:59;19.50;99.90
5176;DHT22;2607;50.934;6.934;2023-07-29T11:35:25;19.50;99.90
5176;DHT22;2607;50.934;6.934;2023-07-29T11:37:52;19.50;99.90
5176;DHT22;2607;50.934;6.934;2023-07-29T11:40:19;19.60;99.90
5176;DHT22;2607;50.934;6.934;2023-07-29T11:42:46;19.60;99.90
5176;DHT22;2607;50.934;6.934;2023-07-29T11:45:13;19.60;99.90
5176;DHT22;2607;50.934;6.934;2023-07-29T11:47:39;19.70;99.90
5176;DHT22;2607;50.934;6.934;2023-07-29T11:50:09;19.80;99.90
5176;DHT22;2607;50.934;6.934;2023-07-29T11:52:35;19.90;99.90
5176;DHT22;2607;50.934;6.934;2023-07-29T11:55:02;20.00;99.90
5176;DHT22;2607;50.934;6.934;2023-07-29T11:57:29;20.10;99.90
5176;DHT22;2607;50.934;6.934;2023-07-29T11:59:55;20.20;99.90
5176;DHT22;2607;50.934;6.934;2023-07-29T12:02:21;20.30;99.90
5176;DHT22;2607;50.934;6.934;2023-07-29T12:04:49;20.40;99.90
5176;DHT22;2607;50.934;6.934;2023-07-29T12:07:17;20.40;99.90
5176;DHT22;2607;50.934;6.934;2023-07-29T12:09:43;20.40;99.90
5176;DHT22;2607;50.934;6.934;2023-07-29T12:12:09;20.40;99.90
5176;DHT22;2607;50.934;6.934;2023-07-29T12:14:35;20.40;99.90
5176;DHT22;2607;50.934;6.934;2023-07-29T12:17:02;20.60;99.90
5176;DHT22;2607;50.934;6.934;2023-07-29T12:19:35;20.70;99.90
5176;DHT22;2607;50.934;6.934;2023-07-29T12:22:09;21.00;99.90
5176;DHT22;2607;50.934;6.934;2023-07-29T12:24:40;21.10;99.90
5176;DHT22;2607;50.934;6.934;2023-07-29T12:27:13;21.30;99.90
5176;DHT22;2607;50.934;6.934;2023-07-29T12:29:40;21.30;99.90
5176;DHT22;2607;50.934;6.934;2023-07-29T12:32:07;21.40;99.90
5176;DHT22;2607;50.934;6.934;2023-07-29T12:34:33;21.50;99.90
5176;DHT22;2607;50.934;6.934;2023-07-29T12:37:03;21.50;99.90
5176;DHT22;2607;50.934;6.934;2023-07-29T12:39:31;21.60;99.90
5176;DHT22;2607;50.934;6.934;2023-07-29T12:41:58;21.50;99.90
5176;DHT22;2607;50.934;6.934;2023-07-29T12:44:25;21.50;99.90
5176;DHT22;2607;50.934;6.934;2023-07-29T12:46:51;21.50;99.90
5176;DHT22;2607;50.934;6.934;2023-07-29T12:49:17;21.40;99.90
5176;DHT22;2607;50.934;6.934;2023-07-29T12:51:43;21.30;99.90
5176;DHT22;2607;50.934;6.934;2023-07-29T12:54:08;21.20;99.90
5176;DHT22;2607;50.934;6.934;2023-07-29T12:56:34;21.10;99.90
5176;DHT22;2607;50.934;6.934;2023-07-29T12:59:00;20.90;99.90
5176;DHT22;2607;50.934;6.934;2023-07-29T13:01:27;20.80;99.90
5176;DHT22;2607;50.934;6.934;2023-07-29T13:03:53;20.70;99.90
5176;DHT22;2607;50.934;6.934;2023-07-29T13:06:18;20.60;99.90
5176;DHT22;2607;50.934;6.934;2023-07-29T13:08:44;20.60;99.90
5176;DHT22;2607;50.934;6.934;2023-07-29T13:11:10;20.60;99.90
5176;DHT22;2607;50.934;6.934;2023-07-29T13:13:36;20.70;99.90
5176;DHT22;2607;50.934;6.934;2023-07-29T13:16:01;20.70;99.90
5176;DHT22;2607;50.934;6.934;2023-07-29T13:18:27;20.70;99.90
5176;DHT22;2607;50.934;6.934;2023-07-29T13:20:53;20.70;99.90
5176;DHT22;2607;50.934;6.934;2023-07-29T13:23:19;20.70;99.90
5176;DHT22;2607;50.934;6.934;2023-07-29T13:25:45;20.70;99.90
5176;DHT22;2607;50.934;6.934;2023-07-29T13:28:11;20.60;99.90
5176;DHT22;2607;50.934;6.934;2023-07-29T13:30:36;20.50;99.90
5176;DHT22;2607;50.934;6.934;2023-07-29T13:33:02;20.40;99.90
5176;DHT22;2607;50.934;6.934;2023-07-29T13:35:29;20.30;99.90
5176;DHT22;2607;50.934;6.934;2023-07-29T13:37:55;20.30;99.90
5176;DHT22;2607;50.934;6.934;2023-07-29T13:40:20;20.20;99.90
5176;DHT22;2607;50.934;6.934;2023-07-29T13:42:46;20.10;99.90
5176;DHT22;2607;50.934;6.934;2023-07-29T13:45:11;20.00;99.90
5176;DHT22;2607;50.934;6.934;2023-07-29T13:47:37;20.00;99.90
5176;DHT22;2607;50.934;6.934;2023-07-29T13:50:03;19.90;99.90
5176;DHT22;2607;50.934;6.934;2023-07-29T13:52:29;19.90;99.90
5176;DHT22;2607;50.934;6.934;2023-07-29T13:54:54;19.80;99.90
5176;DHT22;2607;50.934;6.934;2023-07-29T13:57:20;19.80;99.90
5176;DHT22;2607;50.934;6.934;2023-07-29T13:59:45;19.80;99.90
5176;DHT22;2607;50.934;6.934;2023-07-29T14:02:11;19.80;99.90
5176;DHT22;2607;50.934;6.934;2023-07-29T14:04:36;19.80;99.90
5176;DHT22;2607;50.934;6.934;2023-07-29T14:07:02;19.80;99.90
5176;DHT22;2607;50.934;6.934;2023-07-29T14:09:28;19.80;99.90
5176;DHT22;2607;50.934;6.934;2023-07-29T14:11:54;19.90;99.90
5176;DHT22;2607;50.934;6.934;2023-07-29T14:14:20;20.00;99.90
5176;DHT22;2607;50.934;6.934;2023-07-29T14:16:45;20.00;99.90
5176;DHT22;2607;50.934;6.934;2023-07-29T14:19:12;20.10;99.90
5176;DHT22;2607;50.934;6.934;2023-07-29T14:21:37;20.20;99.90
5176;DHT22;2607;50.934;6.934;2023-07-29T14:24:03;20.20;99.90
5176;DHT22;2607;50.934;6.934;2023-07-29T14:26:28;20.30;99.90
5176;DHT22;2607;50.934;6.934;2023-07-29T14:28:54;20.40;99.90
5176;DHT22;2607;50.934;6.934;2023-07-29T14:31:19;20.40;99.90
5176;DHT22;2607;50.934;6.934;2023-07-29T14:33:45;20.40;99.90
5176;DHT22;2607;50.934;6.934;2023-07-29T14:36:12;20.50;99.90
5176;DHT22;2607;50.934;6.934;2023-07-29T14:38:37;20.40;99.90
5176;DHT22;2607;50.934;6.934;2023-07-29T14:41:03;20.40;99.90
5176;DHT22;2607;50.934;6.934;2023-07-29T14:43:30;20.40;99.90
5176;DHT22;2607;50.934;6.934;2023-07-29T14:45:56;20.40;99.90
5176;DHT22;2607;50.934;6.934;2023-07-29T14:48:22;20.40;99.90
5176;DHT22;2607;50.934;6.934;2023-07-29T14:50:48;20.40;99.90
5176;DHT22;2607;50.934;6.934;2023-07-29T14:53:13;20.40;99.90
5176;DHT22;2607;50.934;6.934;2023-07-29T14:55:39;20.30;99.90
5176;DHT22;2607;50.934;6.934;2023-07-29T14:58:05;20.30;99.90
5176;DHT22;2607;50.934;6.934;2023-07-29T15:00:30;20.40;99.90
5176;DHT22;2607;50.934;6.934;2023-07-29T15:02:56;20.30;99.90
5176;DHT22;2607;50.934;6.934;2023-07-29T15:05:21;20.30;99.90
5176;DHT22;2607;50.934;6.934;2023-07-29T15:07:47;20.30;99.90
5176;DHT22;2607;50.934;6.934;2023-07-29T15:10:16;20.20;99.90
5176;DHT22;2607;50.934;6.934;2023-07-29T15:12:42;20.20;99.90
5176;DHT22;2607;50.934;6.934;2023-07-29T15:15:08;20.10;99.90
5176;DHT22;2607;50.934;6.934;2023-07-29T15:17:34;20.00;99.90
5176;DHT22;2607;50.934;6.934;2023-07-29T15:19:59;19.90;99.90
5176;DHT22;2607;50.934;6.934;2023-07-29T15:22:25;19.90;99.90
5176;DHT22;2607;50.934;6.934;2023-07-29T15:24:51;19.90;99.90
5176;DHT22;2607;50.934;6.934;2023-07-29T15:27:16;20.00;99.90
5176;DHT22;2607;50.934;6.934;2023-07-29T15:29:42;20.00;99.90
5176;DHT22;2607;50.934;6.934;2023-07-29T15:32:07;20.10;99.90
5176;DHT22;2607;50.934;6.934;2023-07-29T15:34:33;20.20;99.90
5176;DHT22;2607;50.934;6.934;2023-07-29T15:36:59;20.10;99.90
5176;DHT22;2607;50.934;6.934;2023-07-29T15:39:25;20.10;99.90
5176;DHT22;2607;50.934;6.934;2023-07-29T15:41:51;20.10;99.90
5176;DHT22;2607;50.934;6.934;2023-07-29T15:44:17;20.10;99.90
5176;DHT22;2607;50.934;6.934;2023-07-29T15:46:43;20.10;99.90
5176;DHT22;2607;50.934;6.934;2023-07-29T15:49:09;20.10;99.90
5176;DHT22;2607;50.934;6.934;2023-07-29T15:51:35;20.00;99.90
5176;DHT22;2607;50.934;6.934;2023-07-29T15:54:01;20.00;99.90
5176;DHT22;2607;50.934;6.934;2023-07-29T15:56:28;20.00;99.90
5176;DHT22;2607;50.934;6.934;2023-07-29T15:58:54;19.90;99.90
5176;DHT22;2607;50.934;6.934;2023-07-29T16:01:19;20.00;99.90
5176;DHT22;2607;50.934;6.934;2023-07-29T16:03:45;20.00;99.90